Orbital elements of COSMOS 970 DEB
| Launched | 20 December 1977 |
| Flight ended | – |
| Launch site | Tyuratam Missile and Space Center, Kazakhstan (Also known as Baikonur Cosmodrome) |
| Owner | Commonwealth of Independent States (former USSR) |
| NORAD ID | 10570 |
| Date fetched |
Epoch osculation |
Inc. [°] |
Ecc. | RA asc node [hr] |
Arg Peri. [°] |
Mean anom [°] |
Mean motion [rev/day] |
Abs. mag |
| Date fetched |
Epoch osculation |
Inc. [°] |
Ecc. | RA asc node [hr] |
Arg Peri. [°] |
Mean anom [°] |
Mean motion [rev/day] |
Abs. mag |
| 2026 May 03 17:57 | 2026 Apr 30 14:14:48 | 65.3590 | 0.00122 | 13.1599 | 294.1138 | 183.6867 | 13.85942 | – |
| 2026 May 02 17:57 | 2026 Apr 30 14:14:48 | 65.3590 | 0.00122 | 13.1599 | 294.1138 | 183.6867 | 13.85942 | – |
| 2026 May 01 17:56 | 2026 Apr 30 14:14:48 | 65.3590 | 0.00122 | 13.1599 | 294.1138 | 183.6867 | 13.85942 | – |
| 2026 Apr 30 17:56 | 2026 Apr 30 14:14:48 | 65.3590 | 0.00122 | 13.1599 | 294.1138 | 183.6867 | 13.85942 | – |
| 2026 Apr 29 17:57 | 2026 Apr 24 12:41:12 | 65.3590 | 0.00112 | 14.1962 | 297.3711 | 183.6867 | 13.85942 | – |
| 2026 Apr 28 17:56 | 2026 Apr 24 12:41:12 | 65.3590 | 0.00112 | 14.1962 | 297.3711 | 183.6867 | 13.85942 | – |
| 2026 Apr 27 17:58 | 2026 Apr 24 12:41:12 | 65.3590 | 0.00112 | 14.1962 | 297.3711 | 183.6867 | 13.85942 | – |
| 2026 Apr 26 17:58 | 2026 Apr 24 12:41:12 | 65.3590 | 0.00112 | 14.1962 | 297.3711 | 183.6867 | 13.85942 | – |
| 2026 Apr 25 17:58 | 2026 Apr 24 12:41:12 | 65.3590 | 0.00112 | 14.1962 | 297.3711 | 183.6867 | 13.85942 | – |
| 2026 Apr 24 17:59 | 2026 Apr 24 12:41:12 | 65.3590 | 0.00112 | 14.1962 | 297.3711 | 183.6867 | 13.85942 | – |
| 2026 Apr 23 17:57 | 2026 Apr 19 07:39:27 | 65.3588 | 0.00102 | 15.0862 | 300.9377 | 183.6867 | 13.85942 | – |
| 2026 Apr 22 17:57 | 2026 Apr 19 07:39:27 | 65.3588 | 0.00102 | 15.0862 | 300.9377 | 183.6867 | 13.85942 | – |
| 2026 Apr 21 17:57 | 2026 Apr 19 07:39:27 | 65.3588 | 0.00102 | 15.0862 | 300.9377 | 183.6867 | 13.85942 | – |
| 2026 Apr 20 17:57 | 2026 Apr 19 07:39:27 | 65.3588 | 0.00102 | 15.0862 | 300.9377 | 183.6867 | 13.85942 | – |
| 2026 Apr 19 17:58 | 2026 Apr 19 07:39:27 | 65.3588 | 0.00102 | 15.0862 | 300.9377 | 183.6867 | 13.85942 | – |
| 2026 Apr 18 17:56 | 2026 Apr 12 20:23:30 | 65.3595 | 0.00092 | 16.1915 | 306.2034 | 183.6867 | 13.85942 | – |
| 2026 Apr 16 17:57 | 2026 Apr 12 20:23:30 | 65.3595 | 0.00092 | 16.1915 | 306.2034 | 183.6867 | 13.85942 | – |
| 2026 Apr 14 17:57 | 2026 Apr 12 20:23:30 | 65.3595 | 0.00092 | 16.1915 | 306.2034 | 183.6867 | 13.85942 | – |
| 2026 Apr 13 17:57 | 2026 Apr 12 20:23:30 | 65.3595 | 0.00092 | 16.1915 | 306.2034 | 183.6867 | 13.85942 | – |
| 2026 Apr 12 17:57 | 2026 Apr 08 13:48:29 | 65.3602 | 0.00088 | 16.9217 | 309.9756 | 183.6867 | 13.85942 | – |
| 2026 Apr 11 17:57 | 2026 Apr 08 13:48:29 | 65.3602 | 0.00088 | 16.9217 | 309.9756 | 183.6867 | 13.85942 | – |
| 2026 Apr 10 17:58 | 2026 Apr 08 13:48:29 | 65.3602 | 0.00088 | 16.9217 | 309.9756 | 183.6867 | 13.85942 | – |
| 2026 Apr 09 18:01 | 2026 Apr 08 13:48:29 | 65.3602 | 0.00088 | 16.9217 | 309.9756 | 183.6867 | 13.85942 | – |
| 2026 Apr 08 17:57 | 2026 Apr 08 13:48:29 | 65.3602 | 0.00088 | 16.9217 | 309.9756 | 183.6867 | 13.85942 | – |
| 2026 Apr 07 17:57 | 2026 Apr 01 11:53:07 | 65.3594 | 0.00084 | 18.1312 | 315.9136 | 183.6867 | 13.85942 | – |
| 2026 Apr 06 17:57 | 2026 Apr 01 11:53:07 | 65.3594 | 0.00084 | 18.1312 | 315.9136 | 183.6867 | 13.85942 | – |